sensor_id;sensor_type;location;lat;lon;timestamp;pressure;altitude;pressure_sealevel;temperature;humidity
61742;BME280;47650;49.848;9.620;2022-07-30T00:01:27;99617.56;;;17.04;93.26
61742;BME280;47650;49.848;9.620;2022-07-30T00:03:52;99622.16;;;17.10;92.87
61742;BME280;47650;49.848;9.620;2022-07-30T00:06:19;99618.84;;;17.08;93.33
61742;BME280;47650;49.848;9.620;2022-07-30T00:08:45;99617.56;;;17.04;93.40
61742;BME280;47650;49.848;9.620;2022-07-30T00:11:11;99621.25;;;17.03;93.26
61742;BME280;47650;49.848;9.620;2022-07-30T00:13:37;99621.81;;;16.99;93.29
61742;BME280;47650;49.848;9.620;2022-07-30T00:16:02;99618.94;;;17.00;93.52
61742;BME280;47650;49.848;9.620;2022-07-30T00:18:28;99615.72;;;16.90;93.15
61742;BME280;47650;49.848;9.620;2022-07-30T00:20:53;99634.09;;;16.93;93.44
61742;BME280;47650;49.848;9.620;2022-07-30T00:23:18;99637.06;;;16.98;93.79
61742;BME280;47650;49.848;9.620;2022-07-30T00:25:44;99632.16;;;17.02;93.51
61742;BME280;47650;49.848;9.620;2022-07-30T00:28:09;99607.78;;;16.97;93.52
61742;BME280;47650;49.848;9.620;2022-07-30T00:30:34;99601.34;;;16.91;93.39
61742;BME280;47650;49.848;9.620;2022-07-30T00:33:01;99630.09;;;17.19;92.93
61742;BME280;47650;49.848;9.620;2022-07-30T00:35:34;99634.31;;;17.28;93.28
61742;BME280;47650;49.848;9.620;2022-07-30T00:38:00;99625.91;;;17.31;93.28
61742;BME280;47650;49.848;9.620;2022-07-30T00:40:26;99626.56;;;17.33;92.26
61742;BME280;47650;49.848;9.620;2022-07-30T00:42:51;99629.22;;;17.33;91.76
61742;BME280;47650;49.848;9.620;2022-07-30T00:45:17;99626.56;;;17.33;91.69
61742;BME280;47650;49.848;9.620;2022-07-30T00:47:43;99597.06;;;17.12;92.08
61742;BME280;47650;49.848;9.620;2022-07-30T00:50:10;99629.88;;;17.35;91.93
61742;BME280;47650;49.848;9.620;2022-07-30T00:52:37;99625.34;;;17.36;92.18
61742;BME280;47650;49.848;9.620;2022-07-30T00:55:04;99607.13;;;17.09;92.81
61742;BME280;47650;49.848;9.620;2022-07-30T00:57:30;99628.28;;;17.04;91.89
61742;BME280;47650;49.848;9.620;2022-07-30T00:59:55;99625.94;;;17.16;93.03
61742;BME280;47650;49.848;9.620;2022-07-30T01:02:22;99620.28;;;17.26;93.31
61742;BME280;47650;49.848;9.620;2022-07-30T01:04:48;99624.06;;;17.32;93.31
61742;BME280;47650;49.848;9.620;2022-07-30T01:07:13;99627.44;;;17.40;93.04
61742;BME280;47650;49.848;9.620;2022-07-30T01:09:39;99624.03;;;17.46;92.47
61742;BME280;47650;49.848;9.620;2022-07-30T01:12:05;99624.28;;;17.52;92.78
61742;BME280;47650;49.848;9.620;2022-07-30T01:14:33;99621.03;;;17.56;92.79
61742;BME280;47650;49.848;9.620;2022-07-30T01:16:59;99615.09;;;17.61;93.31
61742;BME280;47650;49.848;9.620;2022-07-30T01:19:28;99619.88;;;17.65;93.06
61742;BME280;47650;49.848;9.620;2022-07-30T01:22:21;99616.75;;;17.62;92.49
61742;BME280;47650;49.848;9.620;2022-07-30T01:27:19;99602.31;;;17.41;92.82
61742;BME280;47650;49.848;9.620;2022-07-30T01:29:46;99603.84;;;17.29;91.88
61742;BME280;47650;49.848;9.620;2022-07-30T01:32:13;99619.84;;;17.44;92.16
61742;BME280;47650;49.848;9.620;2022-07-30T01:34:43;99606.00;;;17.40;91.86
61742;BME280;47650;49.848;9.620;2022-07-30T01:37:10;99612.34;;;17.33;92.24
61742;BME280;47650;49.848;9.620;2022-07-30T01:39:36;99612.88;;;17.28;91.94
61742;BME280;47650;49.848;9.620;2022-07-30T01:42:03;99615.22;;;17.16;91.58
61742;BME280;47650;49.848;9.620;2022-07-30T01:44:31;99614.41;;;17.16;91.68
61742;BME280;47650;49.848;9.620;2022-07-30T01:47:02;99613.94;;;17.12;91.98
61742;BME280;47650;49.848;9.620;2022-07-30T01:49:28;99608.88;;;17.02;91.88
61742;BME280;47650;49.848;9.620;2022-07-30T01:51:54;99610.19;;;17.06;92.41
61742;BME280;47650;49.848;9.620;2022-07-30T01:54:20;99607.31;;;17.08;92.59
61742;BME280;47650;49.848;9.620;2022-07-30T01:56:51;99609.41;;;17.13;92.43
61742;BME280;47650;49.848;9.620;2022-07-30T01:59:19;99567.34;;;16.91;92.47
61742;BME280;47650;49.848;9.620;2022-07-30T02:01:45;99604.50;;;17.16;92.15
61742;BME280;47650;49.848;9.620;2022-07-30T02:04:12;99571.31;;;16.81;92.27
61742;BME280;47650;49.848;9.620;2022-07-30T02:06:45;99610.72;;;16.87;94.30
61742;BME280;47650;49.848;9.620;2022-07-30T02:09:14;99611.56;;;17.02;94.27
61742;BME280;47650;49.848;9.620;2022-07-30T02:11:44;99603.91;;;16.99;93.29
61742;BME280;47650;49.848;9.620;2022-07-30T02:14:46;99609.81;;;17.09;93.51
61742;BME280;47650;49.848;9.620;2022-07-30T02:17:16;99623.06;;;17.18;92.60
61742;BME280;47650;49.848;9.620;2022-07-30T02:19:44;99619.00;;;17.22;92.49
61742;BME280;47650;49.848;9.620;2022-07-30T02:22:12;99621.44;;;17.17;91.94
61742;BME280;47650;49.848;9.620;2022-07-30T02:24:40;99619.38;;;17.19;92.13
61742;BME280;47650;49.848;9.620;2022-07-30T02:27:15;99625.03;;;17.09;91.98
61742;BME280;47650;49.848;9.620;2022-07-30T02:29:43;99636.88;;;17.00;90.76
61742;BME280;47650;49.848;9.620;2022-07-30T02:32:14;99640.00;;;17.18;91.95
61742;BME280;47650;49.848;9.620;2022-07-30T02:34:42;99615.63;;;17.13;92.20
61742;BME280;47650;49.848;9.620;2022-07-30T02:37:10;99643.97;;;17.44;92.67
61742;BME280;47650;49.848;9.620;2022-07-30T02:39:37;99643.31;;;17.57;92.84
61742;BME280;47650;49.848;9.620;2022-07-30T02:42:06;99646.56;;;17.52;93.18
61742;BME280;47650;49.848;9.620;2022-07-30T02:44:32;99663.09;;;17.56;90.94
61742;BME280;47650;49.848;9.620;2022-07-30T02:47:01;99657.06;;;17.69;91.37
61742;BME280;47650;49.848;9.620;2022-07-30T02:49:28;99667.06;;;17.81;91.76
61742;BME280;47650;49.848;9.620;2022-07-30T02:51:54;99626.44;;;17.63;91.48
61742;BME280;47650;49.848;9.620;2022-07-30T02:54:23;99676.00;;;18.03;91.41
61742;BME280;47650;49.848;9.620;2022-07-30T02:56:51;99675.88;;;18.12;90.86
61742;BME280;47650;49.848;9.620;2022-07-30T02:59:18;99672.13;;;18.13;91.09
61742;BME280;47650;49.848;9.620;2022-07-30T03:01:46;99674.88;;;18.19;90.94
61742;BME280;47650;49.848;9.620;2022-07-30T03:04:12;99677.06;;;18.31;91.30
61742;BME280;47650;49.848;9.620;2022-07-30T03:06:39;99678.31;;;18.35;90.71
61742;BME280;47650;49.848;9.620;2022-07-30T03:09:06;99683.94;;;18.40;91.06
61742;BME280;47650;49.848;9.620;2022-07-30T03:11:33;99672.19;;;18.41;90.57
61742;BME280;47650;49.848;9.620;2022-07-30T03:14:01;99673.44;;;18.45;90.68
61742;BME280;47650;49.848;9.620;2022-07-30T03:16:29;99658.94;;;18.39;90.50
61742;BME280;47650;49.848;9.620;2022-07-30T03:18:56;99678.44;;;18.48;90.83
61742;BME280;47650;49.848;9.620;2022-07-30T03:21:25;99683.56;;;18.43;90.15
61742;BME280;47650;49.848;9.620;2022-07-30T03:23:53;99681.31;;;18.47;90.14
61742;BME280;47650;49.848;9.620;2022-07-30T03:26:21;99685.88;;;18.53;90.20
61742;BME280;47650;49.848;9.620;2022-07-30T03:28:48;99689.22;;;18.55;90.59
61742;BME280;47650;49.848;9.620;2022-07-30T03:31:15;99671.03;;;18.29;89.16
61742;BME280;47650;49.848;9.620;2022-07-30T03:33:41;99660.19;;;18.15;90.41
61742;BME280;47650;49.848;9.620;2022-07-30T03:36:08;99696.38;;;17.83;87.44
61742;BME280;47650;49.848;9.620;2022-07-30T03:38:37;99669.31;;;17.99;89.98
61742;BME280;47650;49.848;9.620;2022-07-30T03:41:04;99700.91;;;18.19;89.81
61742;BME280;47650;49.848;9.620;2022-07-30T03:43:30;99684.97;;;18.17;89.23
61742;BME280;47650;49.848;9.620;2022-07-30T03:45:57;99691.56;;;17.93;87.63
61742;BME280;47650;49.848;9.620;2022-07-30T03:48:24;99701.50;;;17.63;88.09
61742;BME280;47650;49.848;9.620;2022-07-30T03:50:51;99692.09;;;17.67;89.14
61742;BME280;47650;49.848;9.620;2022-07-30T03:53:18;99691.25;;;18.03;90.57
61742;BME280;47650;49.848;9.620;2022-07-30T03:55:43;99654.75;;;17.65;89.42
61742;BME280;47650;49.848;9.620;2022-07-30T03:58:09;99698.91;;;17.70;88.71
61742;BME280;47650;49.848;9.620;2022-07-30T04:00:38;99683.84;;;18.05;90.41
61742;BME280;47650;49.848;9.620;2022-07-30T04:03:04;99700.16;;;18.32;90.89
61742;BME280;47650;49.848;9.620;2022-07-30T04:05:29;99694.91;;;18.45;91.21
61742;BME280;47650;49.848;9.620;2022-07-30T04:07:55;99688.75;;;18.51;90.57
61742;BME280;47650;49.848;9.620;2022-07-30T04:10:20;99698.78;;;18.64;89.79
61742;BME280;47650;49.848;9.620;2022-07-30T04:12:45;99696.34;;;18.69;89.81
61742;BME280;47650;49.848;9.620;2022-07-30T04:15:11;99707.38;;;18.81;90.31
61742;BME280;47650;49.848;9.620;2022-07-30T04:17:53;99682.66;;;18.64;89.42
61742;BME280;47650;49.848;9.620;2022-07-30T04:20:26;99687.50;;;17.82;86.44
61742;BME280;47650;49.848;9.620;2022-07-30T04:22:56;99717.22;;;17.66;87.58
61742;BME280;47650;49.848;9.620;2022-07-30T04:25:22;99730.31;;;17.91;88.93
61742;BME280;47650;49.848;9.620;2022-07-30T04:27:50;99719.50;;;18.20;89.86
61742;BME280;47650;49.848;9.620;2022-07-30T04:30:18;99725.63;;;18.36;90.01
61742;BME280;47650;49.848;9.620;2022-07-30T04:32:44;99694.09;;;17.43;87.85
61742;BME280;47650;49.848;9.620;2022-07-30T04:35:10;99728.19;;;17.50;89.54
61742;BME280;47650;49.848;9.620;2022-07-30T04:37:35;99733.09;;;17.82;89.83
61742;BME280;47650;49.848;9.620;2022-07-30T04:40:01;99722.44;;;17.53;88.58
61742;BME280;47650;49.848;9.620;2022-07-30T04:42:28;99723.38;;;17.30;89.71
61742;BME280;47650;49.848;9.620;2022-07-30T04:44:54;99728.00;;;17.21;89.74
61742;BME280;47650;49.848;9.620;2022-07-30T04:47:21;99728.69;;;17.08;92.02
61742;BME280;47650;49.848;9.620;2022-07-30T04:49:47;99727.47;;;17.11;92.40
61742;BME280;47650;49.848;9.620;2022-07-30T04:52:15;99723.66;;;17.50;92.54
61742;BME280;47650;49.848;9.620;2022-07-30T04:54:44;99722.66;;;17.36;90.99
61742;BME280;47650;49.848;9.620;2022-07-30T04:57:12;99736.78;;;17.00;91.86
61742;BME280;47650;49.848;9.620;2022-07-30T04:59:37;99735.72;;;17.61;92.01
61742;BME280;47650;49.848;9.620;2022-07-30T05:02:05;99733.19;;;17.23;92.78
61742;BME280;47650;49.848;9.620;2022-07-30T05:04:33;99740.19;;;17.54;91.19
61742;BME280;47650;49.848;9.620;2022-07-30T05:07:02;99720.69;;;17.45;90.14
61742;BME280;47650;49.848;9.620;2022-07-30T05:09:28;99745.63;;;17.75;89.85
61742;BME280;47650;49.848;9.620;2022-07-30T05:11:55;99727.09;;;17.29;89.81
61742;BME280;47650;49.848;9.620;2022-07-30T05:14:21;99711.84;;;17.29;91.03
61742;BME280;47650;49.848;9.620;2022-07-30T05:16:50;99729.81;;;17.65;90.65
61742;BME280;47650;49.848;9.620;2022-07-30T05:19:16;99743.50;;;18.07;90.62
61742;BME280;47650;49.848;9.620;2022-07-30T05:21:41;99742.09;;;17.90;88.37
61742;BME280;47650;49.848;9.620;2022-07-30T05:24:07;99744.47;;;17.84;88.03
61742;BME280;47650;49.848;9.620;2022-07-30T05:26:32;99748.09;;;17.92;88.13
61742;BME280;47650;49.848;9.620;2022-07-30T05:28:57;99742.78;;;17.98;88.26
61742;BME280;47650;49.848;9.620;2022-07-30T05:31:23;99754.16;;;17.85;88.40
61742;BME280;47650;49.848;9.620;2022-07-30T05:33:49;99748.47;;;18.32;88.35
61742;BME280;47650;49.848;9.620;2022-07-30T05:36:14;99749.34;;;17.96;87.06
61742;BME280;47650;49.848;9.620;2022-07-30T05:38:41;99758.69;;;18.21;86.68
61742;BME280;47650;49.848;9.620;2022-07-30T05:41:06;99727.00;;;17.89;86.33
61742;BME280;47650;49.848;9.620;2022-07-30T05:43:31;99745.22;;;18.36;86.73
61742;BME280;47650;49.848;9.620;2022-07-30T05:45:57;99736.78;;;18.18;85.05
61742;BME280;47650;49.848;9.620;2022-07-30T05:48:22;99747.59;;;18.25;86.03
61742;BME280;47650;49.848;9.620;2022-07-30T05:50:48;99741.06;;;18.34;86.43
61742;BME280;47650;49.848;9.620;2022-07-30T05:53:13;99698.78;;;17.93;85.93
61742;BME280;47650;49.848;9.620;2022-07-30T05:55:38;99689.75;;;17.79;86.49
61742;BME280;47650;49.848;9.620;2022-07-30T05:58:04;99748.13;;;17.62;86.75
61742;BME280;47650;49.848;9.620;2022-07-30T06:00:29;99733.84;;;17.76;87.41
61742;BME280;47650;49.848;9.620;2022-07-30T06:02:54;99752.69;;;17.98;86.79
61742;BME280;47650;49.848;9.620;2022-07-30T06:05:20;99744.78;;;18.11;86.10
61742;BME280;47650;49.848;9.620;2022-07-30T06:07:46;99748.41;;;17.67;86.13
61742;BME280;47650;49.848;9.620;2022-07-30T06:10:20;99711.03;;;18.45;85.97
61742;BME280;47650;49.848;9.620;2022-07-30T06:12:47;99718.97;;;18.32;84.45
61742;BME280;47650;49.848;9.620;2022-07-30T06:15:13;99727.06;;;18.88;84.32
61742;BME280;47650;49.848;9.620;2022-07-30T06:17:42;99749.66;;;18.72;84.43
61742;BME280;47650;49.848;9.620;2022-07-30T06:20:09;99749.59;;;18.66;83.17
61742;BME280;47650;49.848;9.620;2022-07-30T06:22:34;99737.69;;;18.75;82.98
61742;BME280;47650;49.848;9.620;2022-07-30T06:24:59;99755.63;;;18.46;83.86
61742;BME280;47650;49.848;9.620;2022-07-30T06:27:25;99752.44;;;18.86;84.58
61742;BME280;47650;49.848;9.620;2022-07-30T06:29:54;99747.81;;;19.01;83.54
61742;BME280;47650;49.848;9.620;2022-07-30T06:32:20;99715.16;;;18.48;84.08
61742;BME280;47650;49.848;9.620;2022-07-30T06:34:45;99749.97;;;19.12;83.91
61742;BME280;47650;49.848;9.620;2022-07-30T06:37:13;99752.06;;;19.24;83.05
61742;BME280;47650;49.848;9.620;2022-07-30T06:39:41;99741.75;;;18.92;83.61
61742;BME280;47650;49.848;9.620;2022-07-30T06:42:06;99749.09;;;19.12;82.70
61742;BME280;47650;49.848;9.620;2022-07-30T06:44:33;99754.88;;;19.44;84.06
61742;BME280;47650;49.848;9.620;2022-07-30T06:46:58;99753.31;;;19.63;83.90
61742;BME280;47650;49.848;9.620;2022-07-30T06:49:25;99729.56;;;18.90;83.90
61742;BME280;47650;49.848;9.620;2022-07-30T06:51:51;99760.28;;;19.09;84.19
61742;BME280;47650;49.848;9.620;2022-07-30T06:54:19;99755.63;;;19.31;83.78
61742;BME280;47650;49.848;9.620;2022-07-30T06:56:47;99750.19;;;18.61;85.16
61742;BME280;47650;49.848;9.620;2022-07-30T06:59:13;99752.84;;;19.11;84.88
61742;BME280;47650;49.848;9.620;2022-07-30T07:01:41;99766.38;;;19.72;83.84
61742;BME280;47650;49.848;9.620;2022-07-30T07:04:07;99730.97;;;19.69;83.62
61742;BME280;47650;49.848;9.620;2022-07-30T07:06:33;99756.75;;;20.05;83.57
61742;BME280;47650;49.848;9.620;2022-07-30T07:09:00;99756.19;;;20.23;82.41
61742;BME280;47650;49.848;9.620;2022-07-30T07:11:26;99753.69;;;20.08;81.00
61742;BME280;47650;49.848;9.620;2022-07-30T07:13:51;99760.78;;;20.69;81.50
61742;BME280;47650;49.848;9.620;2022-07-30T07:16:19;99732.97;;;20.95;80.82
61742;BME280;47650;49.848;9.620;2022-07-30T07:18:52;99720.59;;;20.74;79.17
61742;BME280;47650;49.848;9.620;2022-07-30T07:21:18;99747.44;;;21.28;78.25
61742;BME280;47650;49.848;9.620;2022-07-30T07:23:44;99756.19;;;21.16;76.81
61742;BME280;47650;49.848;9.620;2022-07-30T07:26:10;99759.63;;;21.50;77.34
61742;BME280;47650;49.848;9.620;2022-07-30T07:28:35;99751.69;;;22.01;77.58
61742;BME280;47650;49.848;9.620;2022-07-30T07:31:01;99733.69;;;22.58;76.64
61742;BME280;47650;49.848;9.620;2022-07-30T07:33:27;99753.50;;;22.96;72.87
61742;BME280;47650;49.848;9.620;2022-07-30T07:35:52;99748.78;;;22.66;66.61
61742;BME280;47650;49.848;9.620;2022-07-30T07:38:21;99744.09;;;22.80;65.19
61742;BME280;47650;49.848;9.620;2022-07-30T07:40:46;99740.00;;;23.51;66.39
61742;BME280;47650;49.848;9.620;2022-07-30T07:43:12;99741.16;;;23.92;68.31
61742;BME280;47650;49.848;9.620;2022-07-30T07:45:40;99746.50;;;23.99;66.00
61742;BME280;47650;49.848;9.620;2022-07-30T07:48:05;99745.28;;;24.25;64.27
61742;BME280;47650;49.848;9.620;2022-07-30T07:50:32;99735.16;;;24.32;62.54
61742;BME280;47650;49.848;9.620;2022-07-30T07:52:59;99727.50;;;24.41;62.04
61742;BME280;47650;49.848;9.620;2022-07-30T07:55:25;99721.97;;;24.36;61.30
61742;BME280;47650;49.848;9.620;2022-07-30T07:57:51;99736.53;;;24.65;61.29
61742;BME280;47650;49.848;9.620;2022-07-30T08:00:17;99740.78;;;24.73;59.86
61742;BME280;47650;49.848;9.620;2022-07-30T08:02:43;99740.09;;;24.66;58.10
61742;BME280;47650;49.848;9.620;2022-07-30T08:05:09;99737.00;;;25.21;59.00
61742;BME280;47650;49.848;9.620;2022-07-30T08:07:36;99743.91;;;24.46;58.12
61742;BME280;47650;49.848;9.620;2022-07-30T08:10:02;99728.97;;;25.03;58.72
61742;BME280;47650;49.848;9.620;2022-07-30T08:12:28;99739.22;;;25.36;53.92
61742;BME280;47650;49.848;9.620;2022-07-30T08:14:53;99738.22;;;25.83;56.36
61742;BME280;47650;49.848;9.620;2022-07-30T08:17:18;99726.75;;;25.93;53.16
61742;BME280;47650;49.848;9.620;2022-07-30T08:19:45;99712.84;;;25.48;51.71
61742;BME280;47650;49.848;9.620;2022-07-30T08:22:11;99731.22;;;25.06;50.24
61742;BME280;47650;49.848;9.620;2022-07-30T08:24:38;99727.84;;;25.80;50.94
61742;BME280;47650;49.848;9.620;2022-07-30T08:27:05;99743.34;;;25.39;51.47
61742;BME280;47650;49.848;9.620;2022-07-30T08:29:31;99729.13;;;25.89;52.11
61742;BME280;47650;49.848;9.620;2022-07-30T08:31:56;99712.66;;;25.38;50.41
61742;BME280;47650;49.848;9.620;2022-07-30T08:34:21;99741.91;;;25.48;51.24
61742;BME280;47650;49.848;9.620;2022-07-30T08:36:47;99733.59;;;25.66;52.29
61742;BME280;47650;49.848;9.620;2022-07-30T08:39:13;99741.91;;;25.24;49.77
61742;BME280;47650;49.848;9.620;2022-07-30T08:41:40;99746.91;;;25.27;50.53
61742;BME280;47650;49.848;9.620;2022-07-30T08:44:09;99750.34;;;25.63;52.17
61742;BME280;47650;49.848;9.620;2022-07-30T08:46:45;99748.00;;;25.55;50.72
61742;BME280;47650;49.848;9.620;2022-07-30T08:49:11;99735.06;;;26.15;51.50
61742;BME280;47650;49.848;9.620;2022-07-30T08:51:37;99730.22;;;26.34;49.96
61742;BME280;47650;49.848;9.620;2022-07-30T08:54:04;99731.03;;;26.51;48.12
61742;BME280;47650;49.848;9.620;2022-07-30T08:56:31;99711.69;;;26.48;48.39
61742;BME280;47650;49.848;9.620;2022-07-30T08:59:04;99744.63;;;26.51;47.87
61742;BME280;47650;49.848;9.620;2022-07-30T09:01:30;99747.41;;;27.07;46.54
61742;BME280;47650;49.848;9.620;2022-07-30T09:03:56;99734.56;;;25.89;49.20
61742;BME280;47650;49.848;9.620;2022-07-30T09:06:21;99745.94;;;27.38;45.87
61742;BME280;47650;49.848;9.620;2022-07-30T09:08:47;99739.66;;;27.87;44.16
61742;BME280;47650;49.848;9.620;2022-07-30T09:11:12;99732.44;;;28.95;40.75
61742;BME280;47650;49.848;9.620;2022-07-30T09:13:39;99712.09;;;30.23;36.23
61742;BME280;47650;49.848;9.620;2022-07-30T09:16:25;99721.44;;;30.52;36.87
61742;BME280;47650;49.848;9.620;2022-07-30T09:18:51;99739.97;;;28.78;38.32
61742;BME280;47650;49.848;9.620;2022-07-30T09:21:21;99736.13;;;29.85;35.48
61742;BME280;47650;49.848;9.620;2022-07-30T09:24:10;99749.25;;;28.77;37.55
61742;BME280;47650;49.848;9.620;2022-07-30T09:27:02;99732.19;;;29.55;36.42
61742;BME280;47650;49.848;9.620;2022-07-30T09:29:30;99662.56;;;27.60;36.49
61742;BME280;47650;49.848;9.620;2022-07-30T09:32:00;99741.81;;;29.15;35.98
61742;BME280;47650;49.848;9.620;2022-07-30T09:34:32;99733.94;;;31.15;33.03
61742;BME280;47650;49.848;9.620;2022-07-30T09:37:01;99725.31;;;32.71;30.35
61742;BME280;47650;49.848;9.620;2022-07-30T09:39:37;99716.25;;;34.38;27.57
61742;BME280;47650;49.848;9.620;2022-07-30T09:42:15;99721.31;;;35.75;25.37
61742;BME280;47650;49.848;9.620;2022-07-30T09:44:41;99731.19;;;34.98;26.07
61742;BME280;47650;49.848;9.620;2022-07-30T09:47:06;99737.09;;;35.97;24.50
61742;BME280;47650;49.848;9.620;2022-07-30T09:49:40;99738.16;;;33.91;28.25
61742;BME280;47650;49.848;9.620;2022-07-30T09:52:09;99732.63;;;34.62;25.98
61742;BME280;47650;49.848;9.620;2022-07-30T09:54:49;99738.56;;;34.70;25.36
61742;BME280;47650;49.848;9.620;2022-07-30T09:57:16;99725.78;;;35.34;24.49
61742;BME280;47650;49.848;9.620;2022-07-30T09:59:41;99716.84;;;38.28;21.94
61742;BME280;47650;49.848;9.620;2022-07-30T10:02:08;99708.31;;;38.60;19.89
61742;BME280;47650;49.848;9.620;2022-07-30T10:04:33;99699.56;;;37.96;21.63
61742;BME280;47650;49.848;9.620;2022-07-30T10:07:20;99715.53;;;37.82;20.87
61742;BME280;47650;49.848;9.620;2022-07-30T10:09:51;99726.16;;;36.60;22.48
61742;BME280;47650;49.848;9.620;2022-07-30T10:12:19;99719.44;;;38.33;20.64
61742;BME280;47650;49.848;9.620;2022-07-30T10:14:46;99719.13;;;38.09;20.40
61742;BME280;47650;49.848;9.620;2022-07-30T10:17:13;99727.94;;;36.10;22.59
61742;BME280;47650;49.848;9.620;2022-07-30T10:19:39;99719.31;;;36.48;22.63
61742;BME280;47650;49.848;9.620;2022-07-30T10:22:07;99697.03;;;36.45;21.17
61742;BME280;47650;49.848;9.620;2022-07-30T10:24:34;99694.31;;;35.49;22.15
61742;BME280;47650;49.848;9.620;2022-07-30T10:26:59;99714.72;;;34.13;23.47
61742;BME280;47650;49.848;9.620;2022-07-30T10:29:25;99717.59;;;35.15;22.12
61742;BME280;47650;49.848;9.620;2022-07-30T10:31:51;99706.44;;;36.44;21.44
61742;BME280;47650;49.848;9.620;2022-07-30T10:34:18;99711.88;;;34.18;23.75
61742;BME280;47650;49.848;9.620;2022-07-30T10:36:48;99693.72;;;35.11;21.63
61742;BME280;47650;49.848;9.620;2022-07-30T10:39:26;99703.53;;;33.04;24.06
61742;BME280;47650;49.848;9.620;2022-07-30T10:47:18;99690.78;;;38.12;18.03
61742;BME280;47650;49.848;9.620;2022-07-30T10:50:08;99710.97;;;38.04;19.12
61742;BME280;47650;49.848;9.620;2022-07-30T10:52:55;99701.53;;;37.87;19.16
61742;BME280;47650;49.848;9.620;2022-07-30T10:55:24;99710.16;;;35.30;20.55
61742;BME280;47650;49.848;9.620;2022-07-30T10:58:01;99703.13;;;35.10;21.09
61742;BME280;47650;49.848;9.620;2022-07-30T11:00:29;99698.09;;;32.99;23.67
61742;BME280;47650;49.848;9.620;2022-07-30T11:03:14;99718.16;;;32.01;23.99
61742;BME280;47650;49.848;9.620;2022-07-30T11:05:41;99701.06;;;34.08;21.86
61742;BME280;47650;49.848;9.620;2022-07-30T11:10:54;99705.34;;;35.49;20.68
61742;BME280;47650;49.848;9.620;2022-07-30T11:13:57;99705.69;;;33.94;22.41
61742;BME280;47650;49.848;9.620;2022-07-30T11:19:08;99717.06;;;35.55;20.62
61742;BME280;47650;49.848;9.620;2022-07-30T11:21:42;99711.94;;;33.13;23.47
61742;BME280;47650;49.848;9.620;2022-07-30T11:24:43;99717.94;;;32.91;24.20
61742;BME280;47650;49.848;9.620;2022-07-30T11:27:43;99729.06;;;30.81;26.58
61742;BME280;47650;49.848;9.620;2022-07-30T11:43:24;99719.88;;;31.87;25.93
61742;BME280;47650;49.848;9.620;2022-07-30T11:46:11;99698.81;;;35.31;22.84
61742;BME280;47650;49.848;9.620;2022-07-30T11:48:41;99685.03;;;36.72;20.43
61742;BME280;47650;49.848;9.620;2022-07-30T11:51:09;99665.53;;;35.42;20.86
61742;BME280;47650;49.848;9.620;2022-07-30T11:53:37;99692.06;;;39.18;17.56
61742;BME280;47650;49.848;9.620;2022-07-30T11:56:03;99681.41;;;39.92;17.21
61742;BME280;47650;49.848;9.620;2022-07-30T11:58:35;99690.41;;;39.89;17.71
61742;BME280;47650;49.848;9.620;2022-07-30T12:01:15;99694.44;;;36.71;19.20
61742;BME280;47650;49.848;9.620;2022-07-30T12:03:44;99686.75;;;37.08;20.23
61742;BME280;47650;49.848;9.620;2022-07-30T12:06:16;99694.09;;;36.19;20.96
61742;BME280;47650;49.848;9.620;2022-07-30T12:08:47;99682.13;;;38.87;17.68
61742;BME280;47650;49.848;9.620;2022-07-30T12:11:13;99697.56;;;36.56;19.61
61742;BME280;47650;49.848;9.620;2022-07-30T12:13:39;99692.94;;;35.97;20.57
61742;BME280;47650;49.848;9.620;2022-07-30T12:16:14;99679.84;;;36.48;20.04
61742;BME280;47650;49.848;9.620;2022-07-30T12:18:40;99694.34;;;35.35;21.29
61742;BME280;47650;49.848;9.620;2022-07-30T12:21:08;99694.66;;;33.37;24.05
61742;BME280;47650;49.848;9.620;2022-07-30T12:23:52;99675.03;;;34.19;22.97
61742;BME280;47650;49.848;9.620;2022-07-30T12:26:31;99695.84;;;31.79;24.63
61742;BME280;47650;49.848;9.620;2022-07-30T12:29:04;99689.06;;;33.23;24.60
61742;BME280;47650;49.848;9.620;2022-07-30T12:31:30;99670.78;;;35.01;22.28
61742;BME280;47650;49.848;9.620;2022-07-30T12:33:57;99676.31;;;36.65;21.04
61742;BME280;47650;49.848;9.620;2022-07-30T12:36:32;99680.13;;;36.69;18.70
61742;BME280;47650;49.848;9.620;2022-07-30T12:39:02;99680.56;;;36.31;19.89
61742;BME280;47650;49.848;9.620;2022-07-30T12:41:57;99686.16;;;35.44;20.35
61742;BME280;47650;49.848;9.620;2022-07-30T12:44:39;99666.53;;;34.48;20.38
61742;BME280;47650;49.848;9.620;2022-07-30T12:47:20;99655.75;;;36.71;18.30
61742;BME280;47650;49.848;9.620;2022-07-30T12:49:48;99655.22;;;37.09;18.49
61742;BME280;47650;49.848;9.620;2022-07-30T12:52:26;99669.59;;;37.63;18.42
61742;BME280;47650;49.848;9.620;2022-07-30T12:55:02;99665.03;;;39.99;16.02
61742;BME280;47650;49.848;9.620;2022-07-30T12:57:59;99680.44;;;35.91;19.09
61742;BME280;47650;49.848;9.620;2022-07-30T13:00:45;99667.94;;;35.93;18.91
61742;BME280;47650;49.848;9.620;2022-07-30T13:03:23;99653.94;;;38.37;16.98
61742;BME280;47650;49.848;9.620;2022-07-30T13:05:54;99640.25;;;39.60;16.44
61742;BME280;47650;49.848;9.620;2022-07-30T13:08:20;99644.81;;;36.66;18.46
61742;BME280;47650;49.848;9.620;2022-07-30T13:10:58;99654.16;;;37.62;17.03
61742;BME280;47650;49.848;9.620;2022-07-30T13:13:25;99662.09;;;36.40;18.92
61742;BME280;47650;49.848;9.620;2022-07-30T13:16:03;99632.16;;;38.10;17.24
61742;BME280;47650;49.848;9.620;2022-07-30T13:18:29;99635.59;;;37.28;17.71
61742;BME280;47650;49.848;9.620;2022-07-30T13:20:57;99638.69;;;37.35;17.53
61742;BME280;47650;49.848;9.620;2022-07-30T13:23:24;99643.69;;;37.16;18.10
61742;BME280;47650;49.848;9.620;2022-07-30T13:25:50;99645.97;;;35.15;19.31
61742;BME280;47650;49.848;9.620;2022-07-30T13:28:16;99621.31;;;37.52;17.88
61742;BME280;47650;49.848;9.620;2022-07-30T13:30:42;99659.59;;;35.85;18.90
61742;BME280;47650;49.848;9.620;2022-07-30T13:33:09;99616.78;;;39.58;15.91
61742;BME280;47650;49.848;9.620;2022-07-30T13:35:34;99642.13;;;36.75;17.94